Time;durP1;ratioP1;P1;durP2;ratioP2;P2;SDS_P1;SDS_P2;PMS_P1;PMS_P2;Temp;Humidity;BMP_temperature;BMP_pressure;BME280_temperature;BME280_humidity;BME280_pressure;Samples;Min_cycle;Max_cycle;Signal;HPM_P1;HPM_P2
2022/10/14 00:01:20;;;;;;;31.98;17.88;;;;;;;12.25;100.00;101458.03;5070685;28;20032;-68
2022/10/14 00:03:46;;;;;;;32.42;20.10;;;;;;;12.26;100.00;101457.00;5070528;28;20075;-68
2022/10/14 00:06:14;;;;;;;33.63;19.45;;;;;;;12.27;100.00;101445.28;5069083;28;20040;-67
2022/10/14 00:08:41;;;;;;;30.52;18.90;;;;;;;12.27;100.00;101454.13;5070410;28;20028;-65
2022/10/14 00:11:11;;;;;;;30.20;17.88;;;;;;;12.28;100.00;101450.44;5070515;28;20021;-64
2022/10/14 00:13:37;;;;;;;31.83;17.58;;;;;;;12.30;100.00;101449.44;5070451;28;20035;-64
2022/10/14 00:16:04;;;;;;;31.30;17.65;;;;;;;12.30;100.00;101449.44;5070457;28;20143;-65
2022/10/14 00:18:30;;;;;;;30.30;17.63;;;;;;;12.31;100.00;101451.06;5070074;28;20062;-65
2022/10/14 00:20:57;;;;;;;29.75;20.02;;;;;;;12.31;100.00;101451.06;5070238;28;20037;-64
2022/10/14 00:23:23;;;;;;;29.38;17.17;;;;;;;12.33;100.00;101451.72;5070119;28;20024;-65
2022/10/14 00:25:49;;;;;;;29.88;19.90;;;;;;;12.36;100.00;101456.66;5070197;28;20032;-65
2022/10/14 00:28:14;;;;;;;30.52;19.40;;;;;;;12.36;100.00;101451.31;5070059;28;20086;-64
2022/10/14 00:30:40;;;;;;;33.22;19.58;;;;;;;12.37;100.00;101456.50;5070020;28;20070;-65
2022/10/14 00:33:05;;;;;;;29.05;17.05;;;;;;;12.37;100.00;101448.47;5069980;28;20047;-64
2022/10/14 00:35:31;;;;;;;29.10;16.83;;;;;;;12.39;100.00;101450.91;5069728;28;20426;-64
2022/10/14 00:37:57;;;;;;;28.75;17.42;;;;;;;12.40;100.00;101449.91;5069928;28;20955;-65
2022/10/14 00:40:23;;;;;;;29.73;18.48;;;;;;;12.41;100.00;101448.88;5069669;28;20652;-65
2022/10/14 00:42:49;;;;;;;30.13;18.85;;;;;;;12.41;100.00;101448.88;5069827;28;20020;-64
2022/10/14 00:45:20;;;;;;;36.17;17.83;;;;;;;12.41;100.00;101448.88;5069960;28;20044;-64
2022/10/14 00:47:48;;;;;;;29.95;17.52;;;;;;;12.42;100.00;101442.53;5069793;28;20424;-64
2022/10/14 00:50:15;;;;;;;30.65;19.85;;;;;;;12.39;100.00;101435.72;5069806;28;20017;-64
2022/10/14 00:52:41;;;;;;;27.55;16.60;;;;;;;12.41;100.00;101435.50;5069669;28;20028;-64
2022/10/14 00:55:13;;;;;;;32.20;19.92;;;;;;;12.41;100.00;101436.34;5069709;28;20066;-64
2022/10/14 00:57:38;;;;;;;30.60;18.50;;;;;;;12.39;100.00;101435.72;5069593;28;20035;-65
2022/10/14 01:00:09;;;;;;;33.22;17.15;;;;;;;12.37;100.00;101429.75;5069459;28;20052;-65
2022/10/14 01:02:34;;;;;;;28.60;16.60;;;;;;;12.37;100.00;101437.75;5069595;28;20181;-64
2022/10/14 01:05:01;;;;;;;29.50;18.08;;;;;;;12.36;100.00;101430.75;5069619;28;20044;-64
2022/10/14 01:07:42;;;;;;;30.17;18.20;;;;;;;12.37;100.00;101423.56;5069542;28;20036;-64
2022/10/14 01:10:24;;;;;;;25.80;15.23;;;;;;;12.37;100.00;101429.75;5069062;28;20024;-64
2022/10/14 01:13:06;;;;;;;;;;;;;;;12.39;100.00;101421.50;5069907;28;20051;-65
2022/10/14 01:15:37;;;;;;;29.63;15.70;;;;;;;12.37;100.00;101424.38;5069429;28;19912;-64
2022/10/14 01:18:11;;;;;;;26.75;16.00;;;;;;;12.36;100.00;101417.38;5069281;28;20450;-64
2022/10/14 01:20:48;;;;;;;31.13;16.33;;;;;;;12.36;100.00;101408.53;5069110;28;20032;-65
2022/10/14 01:23:26;;;;;;;28.98;17.95;;;;;;;12.34;100.00;101415.91;5069244;28;20028;-64
2022/10/14 01:26:07;;;;;;;31.52;16.15;;;;;;;12.33;100.00;101408.91;5069348;28;20116;-64
2022/10/14 01:28:45;;;;;;;25.80;15.23;;;;;;;12.31;100.00;101402.91;5069203;28;20028;-64
2022/10/14 01:31:20;;;;;;;29.02;15.05;;;;;;;12.27;100.00;101389.94;5071461;28;20020;-64
2022/10/14 01:33:50;;;;;;;27.50;15.63;;;;;;;12.28;100.00;101385.41;5068904;28;20503;-64
2022/10/14 01:36:19;;;;;;;26.60;15.48;;;;;;;12.27;100.00;101384.59;5069102;28;20435;-64
2022/10/14 01:38:55;;;;;;;26.88;17.13;;;;;;;12.25;100.00;101364.41;5069213;28;20060;-64
2022/10/14 01:41:25;;;;;;;25.42;16.52;;;;;;;12.19;100.00;101360.69;5069297;28;20025;-64
2022/10/14 01:43:54;;;;;;;26.17;16.05;;;;;;;12.25;100.00;101362.56;5069184;28;20035;-64
2022/10/14 01:46:21;;;;;;;27.05;16.00;;;;;;;12.25;100.00;101357.22;5068770;28;20037;-64
2022/10/14 01:48:53;;;;;;;27.63;16.95;;;;;;;12.23;100.00;101351.22;5069122;28;20464;-64
2022/10/14 01:51:42;;;;;;;25.83;16.13;;;;;;;12.26;100.00;101344.66;5069193;28;20020;-64
2022/10/14 01:54:23;;;;;;;23.65;14.35;;;;;;;12.22;100.00;101348.75;5069102;28;20059;-65
2022/10/14 01:56:52;;;;;;;28.70;15.50;;;;;;;12.24;100.00;101347.53;5069021;28;20539;-65
2022/10/14 01:59:20;;;;;;;28.65;15.73;;;;;;;12.24;100.00;101349.41;5068957;28;20112;-64
2022/10/14 02:01:45;;;;;;;23.25;14.02;;;;;;;12.24;100.00;101347.53;5069044;28;20533;-64
2022/10/14 02:04:28;;;;;;;25.38;15.23;;;;;;;12.24;100.00;101352.06;5068996;28;20044;-65
2022/10/14 02:07:03;;;;;;;25.15;14.75;;;;;;;12.17;100.00;101357.38;5068824;28;20365;-65
2022/10/14 02:09:37;;;;;;;27.70;15.25;;;;;;;12.22;100.00;101359.47;5068722;28;20028;-64
2022/10/14 02:12:37;;;;;;;23.80;15.00;;;;;;;12.21;100.00;101347.94;5068804;28;20028;-64
2022/10/14 02:15:25;;;;;;;25.40;15.65;;;;;;;12.16;100.00;101339.69;5068792;28;20028;-65
2022/10/14 02:18:02;;;;;;;24.38;14.77;;;;;;;12.16;100.00;101339.69;5068626;28;20032;-64
2022/10/14 02:20:41;;;;;;;26.50;14.75;;;;;;;12.16;100.00;101334.34;5068694;28;20384;-64
2022/10/14 02:23:18;;;;;;;25.77;14.68;;;;;;;12.18;100.00;101340.31;5067487;28;20036;-65
2022/10/14 02:25:46;;;;;;;25.85;14.98;;;;;;;12.16;100.00;101333.50;5068636;28;20526;-64
2022/10/14 02:28:16;;;;;;;28.00;15.25;;;;;;;12.17;100.00;101335.97;5068861;28;20031;-64
2022/10/14 02:30:48;;;;;;;25.70;15.33;;;;;;;12.17;100.00;101335.97;5068787;28;20020;-64
2022/10/14 02:33:14;;;;;;;30.10;17.27;;;;;;;12.19;100.00;101349.97;5068664;28;20062;-64
2022/10/14 02:35:41;;;;;;;26.38;15.32;;;;;;;12.18;100.00;101340.31;5068472;28;20033;-64
2022/10/14 02:38:07;;;;;;;23.70;13.65;;;;;;;12.16;100.00;101331.66;5068171;28;20583;-65
2022/10/14 02:40:41;;;;;;;26.40;13.35;;;;;;;12.20;100.00;101340.91;5068471;28;20497;-64
2022/10/14 02:43:08;;;;;;;28.55;14.65;;;;;;;12.20;100.00;101332.91;5068627;28;20115;-64
2022/10/14 02:45:36;;;;;;;25.23;14.05;;;;;;;12.20;100.00;101346.28;5068540;28;20025;-65
2022/10/14 02:48:01;;;;;;;27.75;14.40;;;;;;;12.18;100.00;101343.00;5071532;28;20048;-64
2022/10/14 02:50:27;;;;;;;26.17;13.88;;;;;;;12.23;100.00;101347.72;5072160;28;20396;-64
2022/10/14 02:52:52;;;;;;;24.38;15.25;;;;;;;12.23;100.00;101340.53;5071564;28;20078;-65
2022/10/14 02:55:17;;;;;;;28.85;16.13;;;;;;;12.25;100.00;101332.31;5071903;28;20107;-64
2022/10/14 02:57:43;;;;;;;26.85;15.48;;;;;;;12.23;100.00;101326.34;5071775;28;20119;-64
2022/10/14 03:00:09;;;;;;;24.42;13.38;;;;;;;12.24;100.00;101331.50;5071658;28;20056;-64
2022/10/14 03:02:34;;;;;;;26.00;13.82;;;;;;;12.25;100.00;101332.31;5071460;28;20025;-64
2022/10/14 03:05:00;;;;;;;26.95;14.48;;;;;;;12.23;100.00;101324.47;5071394;28;20075;-64
2022/10/14 03:07:25;;;;;;;25.50;15.77;;;;;;;12.20;100.00;101316.84;5070730;28;20040;-64
2022/10/14 03:09:50;;;;;;;25.30;13.95;;;;;;;12.22;100.00;101314.81;5071516;28;21028;-64
2022/10/14 03:12:16;;;;;;;27.25;15.23;;;;;;;12.22;100.00;101311.31;5071689;28;20043;-67
2022/10/14 03:14:41;;;;;;;25.60;13.05;;;;;;;12.22;100.00;101303.31;5071700;28;20059;-67
2022/10/14 03:17:07;;;;;;;23.27;13.43;;;;;;;12.22;100.00;101308.66;5071397;28;20384;-67
2022/10/14 03:19:33;;;;;;;30.55;16.98;;;;;;;12.23;100.00;101302.28;5071265;28;20202;-67
2022/10/14 03:21:58;;;;;;;25.45;14.23;;;;;;;12.23;100.00;101308.44;5071389;28;20939;-67
2022/10/14 03:24:23;;;;;;;26.98;14.40;;;;;;;12.23;100.00;101303.09;5071539;28;20032;-67
2022/10/14 03:26:49;;;;;;;26.25;12.75;;;;;;;12.24;100.00;101296.72;5071383;28;20058;-67
2022/10/14 03:29:14;;;;;;;27.33;14.45;;;;;;;12.25;100.00;101294.88;5071363;28;20032;-67
2022/10/14 03:31:39;;;;;;;25.73;14.35;;;;;;;12.26;100.00;101299.19;5071237;28;20036;-67
2022/10/14 03:34:05;;;;;;;25.85;15.65;;;;;;;12.25;100.00;101292.22;5071322;28;20117;-67
2022/10/14 03:36:30;;;;;;;25.67;14.07;;;;;;;12.25;100.00;101295.69;5071310;28;20032;-67
2022/10/14 03:38:55;;;;;;;25.75;14.63;;;;;;;12.25;100.00;101293.03;5070768;28;20418;-67
2022/10/14 03:41:21;;;;;;;25.70;14.35;;;;;;;12.25;100.00;101286.84;5070849;28;20024;-67
2022/10/14 03:43:46;;;;;;;26.13;13.88;;;;;;;12.25;100.00;101285.00;5071020;28;20491;-67
2022/10/14 03:46:12;;;;;;;26.63;13.98;;;;;;;12.24;100.00;101286.03;5071018;28;20056;-68
2022/10/14 03:48:37;;;;;;;26.60;14.18;;;;;;;12.26;100.00;101286.69;5071052;28;20020;-68
2022/10/14 03:51:02;;;;;;;26.42;14.50;;;;;;;12.26;100.00;101275.13;5070813;28;20029;-68
2022/10/14 03:53:28;;;;;;;26.92;15.07;;;;;;;12.26;100.00;101275.97;5070751;28;20090;-68
2022/10/14 03:55:53;;;;;;;27.40;13.55;;;;;;;12.26;100.00;101283.16;5070422;28;20397;-67
2022/10/14 03:58:18;;;;;;;23.13;13.43;;;;;;;12.27;100.00;101280.28;5070616;28;20123;-67
2022/10/14 04:00:44;;;;;;;27.02;13.10;;;;;;;12.27;100.00;101272.25;5072001;28;20475;-68
2022/10/14 04:03:09;;;;;;;25.58;14.55;;;;;;;12.26;100.00;101284.00;5070683;28;20531;-68
2022/10/14 04:05:35;;;;;;;23.33;13.13;;;;;;;12.27;100.00;101274.94;5070660;28;20533;-67
2022/10/14 04:08:01;;;;;;;26.90;13.60;;;;;;;12.27;100.00;101274.13;5070340;28;20028;-67
2022/10/14 04:10:26;;;;;;;27.35;13.52;;;;;;;12.27;100.00;101261.56;5070093;28;20059;-68
2022/10/14 04:12:53;;;;;;;21.60;12.82;;;;;;;12.26;100.00;101259.06;5070610;28;20524;-68
2022/10/14 04:15:18;;;;;;;23.38;14.05;;;;;;;12.28;100.00;101255.19;5070212;28;20064;-68
2022/10/14 04:17:44;;;;;;;25.10;13.77;;;;;;;12.28;100.00;101251.69;5070178;28;20498;-67
2022/10/14 04:20:09;;;;;;;24.33;13.02;;;;;;;12.27;100.00;101245.53;5070145;28;20025;-67
2022/10/14 04:22:35;;;;;;;25.98;13.43;;;;;;;12.26;100.00;101249.22;5070349;28;20043;-67
2022/10/14 04:25:00;;;;;;;24.30;13.13;;;;;;;12.25;100.00;101250.22;5070184;28;20123;-67
2022/10/14 04:27:26;;;;;;;26.20;13.40;;;;;;;12.25;100.00;101252.91;5070141;28;20030;-67
2022/10/14 04:29:51;;;;;;;23.52;13.63;;;;;;;12.22;100.00;101236.44;5069950;28;20103;-68
2022/10/14 04:32:18;;;;;;;24.40;13.38;;;;;;;12.26;100.00;101243.88;5069838;28;20028;-68
2022/10/14 04:34:43;;;;;;;35.33;14.02;;;;;;;12.25;100.00;101234.19;5069600;28;20040;-67
2022/10/14 04:37:09;;;;;;;24.75;14.82;;;;;;;12.27;100.00;101245.53;5070261;28;20131;-67
2022/10/14 04:39:34;;;;;;;25.05;12.38;;;;;;;12.27;100.00;101244.69;5070002;28;20029;-67
2022/10/14 04:41:59;;;;;;;27.38;14.30;;;;;;;12.27;100.00;101239.34;5069460;28;20476;-67
2022/10/14 04:44:25;;;;;;;23.10;12.45;;;;;;;12.28;100.00;101230.28;5069812;28;20035;-68
2022/10/14 04:46:50;;;;;;;25.27;13.20;;;;;;;12.28;100.00;101233.78;5068417;28;20036;-68
2022/10/14 04:49:16;;;;;;;21.80;12.57;;;;;;;12.28;100.00;101239.13;5069760;28;20025;-68
2022/10/14 04:51:41;;;;;;;25.45;12.77;;;;;;;12.30;100.00;101235.47;5069597;28;20047;-68
2022/10/14 04:54:07;;;;;;;28.92;14.70;;;;;;;12.31;100.00;101234.41;5069815;28;20035;-68
2022/10/14 04:56:32;;;;;;;21.90;12.75;;;;;;;12.31;100.00;101235.25;5069375;28;20446;-68
2022/10/14 04:58:57;;;;;;;24.98;14.48;;;;;;;12.30;100.00;101225.56;5069405;28;20024;-68
2022/10/14 05:01:23;;;;;;;23.77;12.20;;;;;;;12.31;100.00;101229.88;5069642;28;20059;-67
2022/10/14 05:03:50;;;;;;;24.67;13.68;;;;;;;12.31;100.00;101221.06;5069657;28;20072;-67
2022/10/14 05:06:16;;;;;;;21.25;11.50;;;;;;;12.30;100.00;101220.22;5069465;28;20036;-67
2022/10/14 05:08:41;;;;;;;25.13;13.60;;;;;;;12.28;100.00;101223.09;5068973;28;20028;-67
2022/10/14 05:11:06;;;;;;;22.83;13.48;;;;;;;12.31;100.00;101221.88;5068800;28;20488;-67
2022/10/14 05:13:32;;;;;;;26.50;13.02;;;;;;;12.31;100.00;101215.69;5069206;28;20039;-67
2022/10/14 05:15:57;;;;;;;23.42;12.05;;;;;;;12.32;100.00;101206.66;5069396;28;20036;-67
2022/10/14 05:18:22;;;;;;;22.60;12.55;;;;;;;12.31;100.00;101202.31;5069278;28;20048;-67
2022/10/14 05:20:48;;;;;;;23.05;11.60;;;;;;;12.31;100.00;101195.13;5069240;28;20029;-67
2022/10/14 05:23:13;;;;;;;21.55;11.20;;;;;;;12.32;100.00;101198.66;5069652;28;20032;-67
2022/10/14 05:25:39;;;;;;;22.65;13.52;;;;;;;12.32;100.00;101199.47;5069261;28;20060;-67
2022/10/14 05:28:04;;;;;;;22.92;12.57;;;;;;;12.32;100.00;101199.47;5069337;28;20043;-67
2022/10/14 05:30:29;;;;;;;22.20;11.35;;;;;;;12.33;100.00;101194.94;5069138;28;20505;-67
2022/10/14 05:32:55;;;;;;;22.17;11.80;;;;;;;12.34;100.00;101191.22;5069388;28;20426;-67
2022/10/14 05:35:21;;;;;;;23.98;11.52;;;;;;;12.32;100.00;101180.75;5069108;28;20050;-67
2022/10/14 05:37:46;;;;;;;21.98;11.77;;;;;;;12.33;100.00;101179.72;5069215;28;20443;-67
2022/10/14 05:40:11;;;;;;;22.38;12.27;;;;;;;12.34;100.00;101178.69;5069047;28;20055;-67
2022/10/14 05:42:37;;;;;;;19.98;11.52;;;;;;;12.36;100.00;101168.59;5068887;28;20048;-67
2022/10/14 05:45:04;;;;;;;21.70;11.55;;;;;;;12.38;100.00;101168.41;5068639;28;20085;-67
2022/10/14 05:47:29;;;;;;;20.25;11.30;;;;;;;12.37;100.00;101162.25;5068939;28;20619;-67
2022/10/14 05:49:54;;;;;;;19.88;10.45;;;;;;;12.38;100.00;101161.22;5069012;28;20021;-68
2022/10/14 05:52:20;;;;;;;22.85;11.27;;;;;;;12.40;100.00;101161.03;5068955;28;20033;-68
2022/10/14 05:54:45;;;;;;;21.88;10.20;;;;;;;12.41;100.00;101163.47;5069160;28;20107;-68
2022/10/14 05:57:10;;;;;;;21.02;9.85;;;;;;;12.37;100.00;101151.53;5068623;28;20119;-68
2022/10/14 05:59:36;;;;;;;22.42;9.77;;;;;;;12.42;100.00;101157.13;5068690;28;20032;-68
2022/10/14 06:02:01;;;;;;;20.90;10.52;;;;;;;12.42;100.00;101159.78;5069010;28;20375;-67
2022/10/14 06:04:27;;;;;;;35.83;11.95;;;;;;;12.43;100.00;101153.41;5068926;28;20516;-67
2022/10/14 06:06:53;;;;;;;19.23;9.93;;;;;;;12.46;100.00;101149.50;5069073;28;20032;-67
2022/10/14 06:09:18;;;;;;;21.48;11.35;;;;;;;12.46;100.00;101154.84;5068656;28;20028;-67
2022/10/14 06:11:44;;;;;;;20.65;9.95;;;;;;;12.47;100.00;101152.00;5068790;28;20876;-67
2022/10/14 06:14:10;;;;;;;20.15;9.75;;;;;;;12.48;100.00;101150.13;5068340;28;20360;-67
2022/10/14 06:16:35;;;;;;;20.35;9.32;;;;;;;12.47;100.00;101138.63;5068704;28;20031;-67
2022/10/14 06:19:01;;;;;;;17.90;9.48;;;;;;;12.49;100.00;101138.41;5068432;28;20407;-67
2022/10/14 06:21:26;;;;;;;17.77;8.77;;;;;;;12.49;100.00;101141.88;5070904;28;20125;-67
2022/10/14 06:23:51;;;;;;;19.23;9.02;;;;;;;12.54;100.00;101149.31;5072461;28;20032;-67
2022/10/14 06:26:17;;;;;;;18.10;8.65;;;;;;;12.55;100.00;101147.47;5072257;28;20047;-67
2022/10/14 06:28:42;;;;;;;16.98;8.77;;;;;;;12.57;100.00;101145.41;5072440;28;20032;-67
2022/10/14 06:31:08;;;;;;;16.75;8.43;;;;;;;12.59;100.00;101146.03;5074589;28;20028;-67
2022/10/14 06:33:34;;;;;;;18.52;9.00;;;;;;;12.60;100.00;101137.81;5072596;28;20044;-68
2022/10/14 06:36:04;;;;;;;18.63;9.15;;;;;;;12.57;100.00;101138.19;5072163;28;20036;-67
2022/10/14 06:38:29;;;;;;;19.33;9.15;;;;;;;12.60;100.00;101143.19;5072144;28;20108;-67
2022/10/14 06:40:55;;;;;;;17.33;8.20;;;;;;;12.61;100.00;101139.47;5072025;28;20503;-67
2022/10/14 06:43:21;;;;;;;15.82;8.50;;;;;;;12.62;100.00;101138.41;5071690;28;20044;-66
2022/10/14 06:45:47;;;;;;;16.30;6.97;;;;;;;12.64;100.00;101130.19;5071495;28;20039;-66
2022/10/14 06:48:13;;;;;;;16.00;8.20;;;;;;;12.64;100.00;101138.22;5071943;28;20028;-66
2022/10/14 06:50:39;;;;;;;15.60;8.52;;;;;;;12.64;100.00;101132.88;5070605;28;20021;-66
2022/10/14 06:53:04;;;;;;;19.38;8.60;;;;;;;12.65;100.00;101130.00;5071933;28;20029;-66
2022/10/14 06:55:30;;;;;;;18.30;8.90;;;;;;;12.68;100.00;101134.09;5071909;28;20025;-66
2022/10/14 06:57:55;;;;;;;17.92;8.80;;;;;;;12.69;100.00;101135.78;5070605;28;20495;-66
2022/10/14 07:00:21;;;;;;;19.40;9.98;;;;;;;12.71;100.00;101129.19;5071383;28;20039;-67
2022/10/14 07:02:46;;;;;;;16.88;7.55;;;;;;;12.72;100.00;101119.31;5071743;28;20059;-67
2022/10/14 07:05:12;;;;;;;18.80;9.43;;;;;;;12.72;100.00;101119.31;5071690;28;20031;-67
2022/10/14 07:07:38;;;;;;;16.20;8.68;;;;;;;12.76;100.00;101109.84;5071736;28;20039;-66
2022/10/14 07:10:03;;;;;;;18.30;8.88;;;;;;;12.79;100.00;101113.97;5071339;28;20024;-66
2022/10/14 07:12:28;;;;;;;17.75;9.23;;;;;;;12.80;100.00;101108.41;5071500;28;20032;-67
2022/10/14 07:14:54;;;;;;;16.63;8.57;;;;;;;12.82;100.00;101114.38;5071524;28;20035;-67
2022/10/14 07:17:19;;;;;;;16.70;8.55;;;;;;;12.85;100.00;101118.50;5071410;28;20044;-67
2022/10/14 07:19:44;;;;;;;18.98;8.93;;;;;;;12.85;100.00;101119.31;5071097;28;20136;-67
2022/10/14 07:22:10;;;;;;;17.77;9.23;;;;;;;12.86;100.00;101114.78;5071431;28;20119;-67
2022/10/14 07:38:34;;;;;;;18.38;9.80;;;;;;;12.92;100.00;101113.97;5106992;27;20426;-66
2022/10/14 07:41:04;;;;;;;17.45;8.32;;;;;;;12.93;100.00;101129.00;5107122;28;20031;-67
2022/10/14 07:43:31;;;;;;;19.08;9.95;;;;;;;12.96;100.00;101125.09;5107005;28;20111;-67
2022/10/14 07:46:01;;;;;;;17.35;8.73;;;;;;;12.98;100.00;101125.72;5100874;28;20471;-68
2022/10/14 07:48:29;;;;;;;16.13;8.45;;;;;;;12.99;100.00;101124.66;5102275;28;20024;-68
2022/10/14 07:50:55;;;;;;;15.05;7.97;;;;;;;13.00;100.00;101118.31;5102337;28;20028;-67
2022/10/14 07:53:22;;;;;;;16.58;8.48;;;;;;;13.03;100.00;101123.25;5102991;28;20039;-67
2022/10/14 07:55:51;;;;;;;16.45;9.13;;;;;;;13.05;100.00;101113.16;5102461;28;20094;-68
2022/10/14 07:58:21;;;;;;;19.20;8.63;;;;;;;13.07;100.00;101111.06;5102265;28;20035;-69
2022/10/14 08:00:48;;;;;;;17.98;8.75;;;;;;;13.09;100.00;101106.34;5102806;28;20031;-67
2022/10/14 08:03:13;;;;;;;17.50;8.90;;;;;;;13.13;100.00;101113.75;5102308;28;20027;-67
2022/10/14 08:05:40;;;;;;;16.55;7.90;;;;;;;13.14;100.00;101107.38;5101855;28;20523;-67
2022/10/14 08:08:05;;;;;;;16.90;8.32;;;;;;;13.18;100.00;101107.78;5102284;28;20589;-70
2022/10/14 08:10:31;;;;;;;14.40;7.93;;;;;;;13.22;100.00;101108.19;5101651;28;20119;-67
2022/10/14 08:12:56;;;;;;;14.68;7.72;;;;;;;13.25;100.00;101103.22;5102273;28;20046;-67
2022/10/14 08:15:22;;;;;;;16.30;8.50;;;;;;;13.28;100.00;101107.38;5101758;28;20035;-67
2022/10/14 08:17:47;;;;;;;13.98;8.70;;;;;;;13.30;100.00;101106.13;5100364;28;20062;-67
2022/10/14 08:20:13;;;;;;;15.05;8.30;;;;;;;13.34;100.00;101103.88;5102020;28;20036;-68
2022/10/14 08:22:38;;;;;;;15.43;8.10;;;;;;;13.38;100.00;101099.75;5101662;28;20066;-67
2022/10/14 08:25:04;;;;;;;15.20;8.13;;;;;;;13.41;100.00;101099.31;5101300;28;20056;-67
2022/10/14 08:27:29;;;;;;;14.70;7.68;;;;;;;13.44;100.00;101098.06;5101812;28;20027;-64
2022/10/14 08:29:54;;;;;;;14.88;7.35;;;;;;;13.47;100.00;101095.81;5102080;28;20089;-67
2022/10/14 08:32:20;;;;;;;14.80;8.25;;;;;;;13.52;100.00;101087.97;5101983;28;20104;-66
2022/10/14 08:34:45;;;;;;;14.25;8.18;;;;;;;13.57;100.00;101090.84;5100781;28;20077;-65
2022/10/14 08:37:10;;;;;;;15.57;8.70;;;;;;;13.62;100.00;101084.84;5102786;28;20048;-64
2022/10/14 08:39:36;;;;;;;14.70;7.72;;;;;;;13.71;100.00;101088.13;5105945;28;20023;-64
2022/10/14 08:42:29;;;;;;;14.98;7.78;;;;;;;13.77;100.00;101092.63;5106005;28;20031;-65
2022/10/14 08:45:09;;;;;;;14.88;7.82;;;;;;;13.83;100.00;101097.13;5105847;28;20505;-65
2022/10/14 08:47:39;;;;;;;15.02;7.20;;;;;;;13.81;100.00;101091.19;5105756;28;20031;-64
2022/10/14 08:50:39;;;;;;;13.93;7.15;;;;;;;13.83;100.00;101083.72;5091473;28;20024;-64
2022/10/14 08:53:12;;;;;;;13.73;6.63;;;;;;;13.81;100.00;101088.50;5092153;28;20598;-64
2022/10/14 08:55:42;;;;;;;12.68;6.88;;;;;;;13.85;100.00;101091.56;5092125;28;20020;-65
2022/10/14 08:58:23;;;;;;;16.42;8.07;;;;;;;13.87;100.00;101090.31;5093848;28;20025;-65
2022/10/14 09:00:50;;;;;;;15.95;8.88;;;;;;;13.87;100.00;101089.50;5093900;28;20032;-64
2022/10/14 09:03:21;;;;;;;12.10;7.57;;;;;;;13.90;100.00;101091.75;5091788;28;20135;-65
2022/10/14 09:05:59;;;;;;;13.80;9.00;;;;;;;13.91;100.00;101088.88;5091368;28;20047;-64
2022/10/14 09:08:31;;;;;;;13.00;7.57;;;;;;;13.92;100.00;101090.50;5091631;28;20441;-64
2022/10/14 09:10:57;;;;;;;15.52;8.65;;;;;;;13.91;100.00;101080.84;5091805;28;20032;-65
2022/10/14 09:13:33;;;;;;;14.73;8.05;;;;;;;13.93;100.00;101086.78;5091781;28;20032;-65
2022/10/14 09:16:11;;;;;;;14.05;7.95;;;;;;;13.97;100.00;101087.19;5091748;28;20069;-65
2022/10/14 09:18:46;;;;;;;14.02;8.40;;;;;;;13.98;100.00;101078.91;5091306;28;20441;-64
2022/10/14 09:21:45;;;;;;;12.25;7.30;;;;;;;14.05;100.00;101084.28;5091066;28;20024;-65
2022/10/14 09:24:40;;;;;;;14.13;7.57;;;;;;;14.07;100.00;101076.84;5091651;28;20123;-65
2022/10/14 09:27:14;;;;;;;14.40;6.93;;;;;;;14.13;100.00;101077.84;5090411;28;20032;-65
2022/10/14 09:29:45;;;;;;;11.40;6.68;;;;;;;14.16;100.00;101074.72;5091401;28;20035;-65
2022/10/14 09:32:43;;;;;;;11.65;6.22;;;;;;;14.20;100.00;101068.72;5091375;28;20024;-65
2022/10/14 09:35:26;;;;;;;15.00;8.00;;;;;;;14.23;100.00;101062.09;5090793;28;20032;-64
2022/10/14 09:37:52;;;;;;;13.55;7.78;;;;;;;14.24;100.00;101061.06;5090947;28;20055;-65
2022/10/14 09:40:46;;;;;;;11.93;6.35;;;;;;;14.27;100.00;101065.16;5091199;28;20032;-64
2022/10/14 09:43:14;;;;;;;11.77;6.30;;;;;;;14.28;100.00;101067.66;5089963;28;20036;-65
2022/10/14 09:45:56;;;;;;;13.70;6.97;;;;;;;14.31;100.00;101067.22;5091103;28;20475;-64
2022/10/14 09:48:42;;;;;;;11.70;6.50;;;;;;;14.33;100.00;101064.28;5091045;28;20062;-65
2022/10/14 09:51:32;;;;;;;10.93;6.78;;;;;;;14.37;100.00;101069.00;5090583;28;20047;-65
2022/10/14 09:54:03;;;;;;;11.75;7.07;;;;;;;14.40;100.00;101054.34;5091118;28;20023;-64
2022/10/14 09:56:37;;;;;;;10.90;6.03;;;;;;;14.45;100.00;101054.50;5090802;28;20024;-64
2022/10/14 09:59:15;;;;;;;13.77;7.47;;;;;;;14.50;100.00;101054.69;5090778;28;20028;-64
2022/10/14 10:01:48;;;;;;;11.93;6.30;;;;;;;14.52;100.00;101065.22;5089968;28;20024;-65
2022/10/14 10:04:35;;;;;;;11.43;6.68;;;;;;;14.52;100.00;101047.25;5090733;28;20043;-65
2022/10/14 10:07:05;;;;;;;13.00;6.78;;;;;;;14.53;100.00;101048.09;5090496;28;20100;-64
2022/10/14 10:09:31;;;;;;;11.02;6.60;;;;;;;14.56;100.00;101050.34;5090527;28;20070;-64
2022/10/14 10:11:57;;;;;;;12.23;6.53;;;;;;;14.54;100.00;101045.19;5090718;28;20036;-65
2022/10/14 10:14:25;;;;;;;11.27;6.25;;;;;;;14.55;100.00;101046.84;5090539;28;20379;-65
2022/10/14 10:17:15;;;;;;;9.52;6.22;;;;;;;14.55;100.00;101044.16;5090624;28;20476;-65
2022/10/14 10:19:43;;;;;;;10.55;5.97;;;;;;;14.53;100.00;101045.41;5090324;28;20028;-64
2022/10/14 10:22:25;;;;;;;12.07;6.57;;;;;;;14.52;100.00;101039.19;5090358;28;20040;-64
2022/10/14 10:24:59;;;;;;;10.30;6.68;;;;;;;14.48;100.00;101043.34;5090310;28;20020;-65
2022/10/14 10:27:33;;;;;;;13.35;6.25;;;;;;;14.45;100.00;101039.22;5090340;28;20116;-65
2022/10/14 10:30:13;;;;;;;11.18;6.47;;;;;;;14.46;100.00;101034.69;5090290;28;20024;-65
2022/10/14 10:33:07;;;;;;;11.27;6.30;;;;;;;14.51;100.00;101036.72;5090175;28;20028;-65
2022/10/14 10:35:55;;;;;;;10.18;5.65;;;;;;;14.51;100.00;101031.34;5086271;28;20577;-65
2022/10/14 10:38:30;;;;;;;11.18;6.00;;;;;;;14.48;100.00;101028.06;5089873;28;20052;-64
2022/10/14 10:41:09;;;;;;;11.25;5.78;;;;;;;14.52;100.00;101031.13;5089653;28;20060;-65
2022/10/14 10:43:44;;;;;;;11.35;6.35;;;;;;;14.47;100.00;101018.38;5089872;28;20023;-65
2022/10/14 10:46:28;;;;;;;10.40;6.57;;;;;;;14.47;100.00;101015.69;5071712;28;20122;-65
2022/10/14 10:49:14;;;;;;;10.18;5.80;;;;;;;14.45;100.00;101015.06;5090025;28;20066;-65
2022/10/14 10:52:11;;;;;;;9.52;5.30;;;;;;;14.42;100.00;101017.38;5089859;28;20497;-65
2022/10/14 10:54:40;;;;;;;11.93;6.80;;;;;;;14.41;100.00;101013.06;5086164;28;20055;-65
2022/10/14 10:57:23;;;;;;;10.15;5.95;;;;;;;14.38;100.00;101013.47;5089712;28;20398;-65
2022/10/14 11:00:00;;;;;;;10.27;6.38;;;;;;;14.36;100.00;101013.72;5089755;28;20031;-64
2022/10/14 11:02:43;;;;;;;9.80;5.90;;;;;;;14.39;100.00;101007.09;5089777;28;20111;-64
2022/10/14 11:05:15;;;;;;;14.00;6.68;;;;;;;14.38;100.00;101005.44;5089690;28;20032;-65
2022/10/14 11:12:11;;;;;;;11.00;6.20;;;;;;;14.45;100.00;100993.59;5089781;28;20463;-65
2022/10/14 11:14:19;;;;;;;12.85;6.05;;;;;;;14.47;100.00;100990.72;5088714;28;20471;-66
2022/10/14 11:16:50;;;;;;;11.45;5.70;;;;;;;14.46;100.00;100987.22;5089443;28;20039;-65
2022/10/14 11:19:24;;;;;;;9.75;5.95;;;;;;;14.52;100.00;100990.88;5089509;28;20016;-66
2022/10/14 11:22:39;;;;;;;10.35;6.18;;;;;;;14.57;100.00;100979.53;5089616;28;20027;-66
2022/10/14 11:25:39;;;;;;;7.80;4.32;;;;;;;14.64;100.00;100985.63;5089584;28;20028;-66
2022/10/14 11:28:25;;;;;;;7.43;4.90;;;;;;;14.65;100.00;100989.97;5090165;28;20032;-66
2022/10/14 11:31:12;;;;;;;6.53;3.97;;;;;;;14.61;100.00;100991.44;5089357;28;20024;-66
2022/10/14 11:33:52;;;;;;;6.38;4.53;;;;;;;14.61;100.00;100989.59;5089452;28;20024;-66
2022/10/14 11:36:42;;;;;;;8.05;4.60;;;;;;;14.58;100.00;100984.66;5089258;28;20051;-66